Time;durP1;ratioP1;P1;durP2;ratioP2;P2;SDS_P1;SDS_P2;PMS_P1;PMS_P2;Temp;Humidity;BMP_temperature;BMP_pressure;BME280_temperature;BME280_humidity;BME280_pressure;Samples;Min_cycle;Max_cycle;Signal;HPM_P1;HPM_P2
2023/04/26 00:02:05;;;;;;;0.70;0.70;;;;;;;;;;5082041;28;20170;-83
2023/04/26 00:04:32;;;;;;;0.60;0.60;;;;;;;;;;5081540;28;20222;-84
2023/04/26 00:06:59;;;;;;;0.50;0.50;;;;;;;;;;5081941;28;20728;-84
2023/04/26 00:09:25;;;;;;;0.60;0.60;;;;;;;;;;5092538;28;20181;-85
2023/04/26 00:11:51;;;;;;;0.60;0.60;;;;;;;;;;5093716;28;20194;-84
2023/04/26 00:14:17;;;;;;;0.60;0.60;;;;;;;;;;5083157;28;20195;-82
2023/04/26 00:16:43;;;;;;;0.70;0.70;;;;;;;;;;5076801;28;20178;-83
2023/04/26 00:19:10;;;;;;;0.67;0.67;;;;;;;;;;5076237;28;20177;-83
2023/04/26 00:21:36;;;;;;;0.60;0.60;;;;;;;;;;5076553;28;20750;-82
2023/04/26 00:24:04;;;;;;;0.70;0.70;;;;;;;;;;5076161;28;20201;-83
2023/04/26 00:26:30;;;;;;;0.60;0.60;;;;;;;;;;5076867;28;20262;-81
2023/04/26 00:28:57;;;;;;;0.70;0.70;;;;;;;;;;5079749;28;20194;-83
2023/04/26 00:31:22;;;;;;;0.60;0.60;;;;;;;;;;5079505;28;20185;-81
2023/04/26 00:33:49;;;;;;;0.60;0.60;;;;;;;;;;5076465;28;20191;-82
2023/04/26 00:36:18;;;;;;;0.63;0.63;;;;;;;;;;5076342;28;20186;-83
2023/04/26 00:38:44;;;;;;;0.60;0.60;;;;;;;;;;5076290;28;20266;-82
2023/04/26 00:41:10;;;;;;;0.70;0.70;;;;;;;;;;5076880;28;20187;-84
2023/04/26 00:43:37;;;;;;;0.60;0.60;;;;;;;;;;5075811;28;20694;-83
2023/04/26 00:46:03;;;;;;;0.67;0.67;;;;;;;;;;5076329;28;20333;-82
2023/04/26 00:48:29;;;;;;;0.70;0.70;;;;;;;;;;5079781;28;20175;-84
2023/04/26 00:50:55;;;;;;;0.60;0.60;;;;;;;;;;5080003;28;20179;-83
2023/04/26 00:53:22;;;;;;;0.60;0.60;;;;;;;;;;5075748;28;20281;-83
2023/04/26 00:55:50;;;;;;;0.70;0.70;;;;;;;;;;5076028;28;20202;-82
2023/04/26 00:58:17;;;;;;;0.60;0.60;;;;;;;;;;5092684;28;20197;-82
2023/04/26 01:00:43;;;;;;;0.70;0.70;;;;;;;;;;5097000;28;20200;-82
2023/04/26 01:03:09;;;;;;;0.70;0.70;;;;;;;;;;5095648;28;20625;-83
2023/04/26 01:05:35;;;;;;;0.70;0.70;;;;;;;;;;5096305;28;20209;-81
2023/04/26 01:08:03;;;;;;;0.70;0.70;;;;;;;;;;5096473;28;20235;-83
2023/04/26 01:10:29;;;;;;;0.60;0.60;;;;;;;;;;5092291;28;20267;-81
2023/04/26 01:12:56;;;;;;;0.60;0.60;;;;;;;;;;5075597;28;20183;-84
2023/04/26 01:15:23;;;;;;;0.73;0.73;;;;;;;;;;5075946;28;20202;-81
2023/04/26 01:17:49;;;;;;;0.60;0.60;;;;;;;;;;5075694;28;20201;-84
2023/04/26 01:20:15;;;;;;;0.70;0.70;;;;;;;;;;5075549;28;20266;-84
2023/04/26 01:22:41;;;;;;;0.70;0.70;;;;;;;;;;5075403;28;20178;-81
2023/04/26 01:25:11;;;;;;;0.80;0.80;;;;;;;;;;5075962;28;20206;-82
2023/04/26 01:27:37;;;;;;;0.70;0.70;;;;;;;;;;5057598;28;20475;-84
2023/04/26 01:30:03;;;;;;;0.70;0.70;;;;;;;;;;5076205;28;20598;-82
2023/04/26 01:32:29;;;;;;;0.70;0.70;;;;;;;;;;5075677;28;20182;-82
2023/04/26 01:34:55;;;;;;;0.70;0.70;;;;;;;;;;5076152;28;20210;-82
2023/04/26 01:37:22;;;;;;;0.57;0.57;;;;;;;;;;5080354;28;20174;-82
2023/04/26 01:39:48;;;;;;;0.70;0.70;;;;;;;;;;5079221;28;20183;-83
2023/04/26 01:42:14;;;;;;;0.70;0.70;;;;;;;;;;5079971;28;20499;-85
2023/04/26 01:44:40;;;;;;;0.60;0.60;;;;;;;;;;5079959;28;20205;-81
2023/04/26 01:47:06;;;;;;;0.70;0.70;;;;;;;;;;5080262;28;20652;-81
2023/04/26 01:49:32;;;;;;;0.70;0.70;;;;;;;;;;5079710;28;20633;-81
2023/04/26 01:51:58;;;;;;;0.70;0.70;;;;;;;;;;5079713;28;20707;-82
2023/04/26 01:54:24;;;;;;;0.70;0.70;;;;;;;;;;5078879;28;20201;-82
2023/04/26 01:56:50;;;;;;;0.60;0.60;;;;;;;;;;5079768;28;20547;-80
2023/04/26 01:59:16;;;;;;;0.60;0.60;;;;;;;;;;5079454;28;20179;-81
2023/04/26 02:01:42;;;;;;;0.77;0.77;;;;;;;;;;5079702;28;20599;-82
2023/04/26 02:04:09;;;;;;;0.60;0.60;;;;;;;;;;5079257;28;20224;-81
2023/04/26 02:06:35;;;;;;;0.70;0.70;;;;;;;;;;5079539;28;20202;-82
2023/04/26 02:09:01;;;;;;;0.60;0.60;;;;;;;;;;5079485;28;20170;-82
2023/04/26 02:11:27;;;;;;;0.70;0.70;;;;;;;;;;5079062;28;20186;-82
2023/04/26 02:13:53;;;;;;;0.70;0.70;;;;;;;;;;5079243;28;20194;-81
2023/04/26 02:16:20;;;;;;;0.60;0.60;;;;;;;;;;5079676;28;20824;-82
2023/04/26 02:18:46;;;;;;;0.80;0.80;;;;;;;;;;5079326;28;20493;-83
2023/04/26 02:21:12;;;;;;;0.77;0.77;;;;;;;;;;5079768;28;20596;-80
2023/04/26 02:23:38;;;;;;;0.70;0.70;;;;;;;;;;5079512;28;20238;-81
2023/04/26 02:26:04;;;;;;;0.60;0.60;;;;;;;;;;5079879;28;20782;-81
2023/04/26 02:28:30;;;;;;;0.60;0.60;;;;;;;;;;5079878;28;20645;-81
2023/04/26 02:30:57;;;;;;;0.70;0.70;;;;;;;;;;5079308;28;20178;-82
2023/04/26 02:33:23;;;;;;;0.70;0.70;;;;;;;;;;5078655;28;20198;-83
2023/04/26 02:35:49;;;;;;;0.70;0.70;;;;;;;;;;5078620;28;20204;-82
2023/04/26 02:38:15;;;;;;;0.80;0.80;;;;;;;;;;5079688;28;20559;-82
2023/04/26 02:40:41;;;;;;;0.80;0.80;;;;;;;;;;5079354;28;20201;-81
2023/04/26 02:43:09;;;;;;;0.70;0.70;;;;;;;;;;5078656;28;20202;-80
2023/04/26 02:45:40;;;;;;;0.70;0.70;;;;;;;;;;5079440;28;20536;-83
2023/04/26 02:48:05;;;;;;;0.70;0.70;;;;;;;;;;5079412;28;20170;-82
2023/04/26 02:50:31;;;;;;;0.70;0.70;;;;;;;;;;5079476;28;20178;-81
2023/04/26 02:52:57;;;;;;;0.80;0.80;;;;;;;;;;5078891;28;20213;-82
2023/04/26 02:55:23;;;;;;;0.70;0.70;;;;;;;;;;5080005;28;20308;-83
2023/04/26 02:57:49;;;;;;;0.77;0.77;;;;;;;;;;5079632;28;20194;-82
2023/04/26 03:00:15;;;;;;;0.80;0.80;;;;;;;;;;5079338;28;20208;-82
2023/04/26 03:02:41;;;;;;;0.70;0.70;;;;;;;;;;5079646;28;20182;-81
2023/04/26 03:05:08;;;;;;;0.73;0.73;;;;;;;;;;5079651;28;20202;-81
2023/04/26 03:07:34;;;;;;;0.90;0.90;;;;;;;;;;5080124;28;20189;-83
2023/04/26 03:10:00;;;;;;;0.80;0.80;;;;;;;;;;5079630;28;20254;-81
2023/04/26 03:12:26;;;;;;;0.70;0.70;;;;;;;;;;5079584;28;20189;-82
2023/04/26 03:14:52;;;;;;;0.80;0.80;;;;;;;;;;5080251;28;20214;-83
2023/04/26 03:17:19;;;;;;;0.70;0.70;;;;;;;;;;5079732;28;20265;-82
2023/04/26 03:19:44;;;;;;;0.80;0.80;;;;;;;;;;5080016;28;20171;-81
2023/04/26 03:22:14;;;;;;;0.70;0.70;;;;;;;;;;5079570;28;20558;-83
2023/04/26 03:24:41;;;;;;;0.60;0.60;;;;;;;;;;5079805;28;20228;-80
2023/04/26 03:27:07;;;;;;;0.77;0.77;;;;;;;;;;5079690;28;20685;-83
2023/04/26 03:29:33;;;;;;;0.80;0.80;;;;;;;;;;5080434;28;20239;-83
2023/04/26 03:32:00;;;;;;;0.80;0.80;;;;;;;;;;5079510;28;20199;-83
2023/04/26 03:34:26;;;;;;;0.87;0.87;;;;;;;;;;5079767;28;20283;-82
2023/04/26 03:36:52;;;;;;;0.80;0.80;;;;;;;;;;5079841;28;20190;-82
2023/04/26 03:39:18;;;;;;;0.80;0.80;;;;;;;;;;5083190;28;20201;-82
2023/04/26 03:41:44;;;;;;;0.80;0.80;;;;;;;;;;5083442;28;20572;-82
2023/04/26 03:44:11;;;;;;;0.70;0.70;;;;;;;;;;5080455;28;20210;-83
2023/04/26 03:46:37;;;;;;;0.60;0.60;;;;;;;;;;5080808;28;20285;-82
2023/04/26 03:49:03;;;;;;;0.80;0.80;;;;;;;;;;5080860;28;20174;-82
2023/04/26 03:51:30;;;;;;;0.70;0.70;;;;;;;;;;5080814;28;20178;-81
2023/04/26 03:53:56;;;;;;;0.80;0.80;;;;;;;;;;5078781;28;20190;-81
2023/04/26 03:56:22;;;;;;;0.83;0.83;;;;;;;;;;5079944;28;20208;-81
2023/04/26 03:58:48;;;;;;;0.80;0.80;;;;;;;;;;5079820;28;20733;-80
2023/04/26 04:01:14;;;;;;;0.80;0.80;;;;;;;;;;5080895;28;20190;-81
2023/04/26 04:03:40;;;;;;;0.77;0.77;;;;;;;;;;5091044;28;20199;-81
2023/04/26 04:06:06;;;;;;;0.80;0.80;;;;;;;;;;5091754;28;20229;-80
2023/04/26 04:08:32;;;;;;;0.70;0.70;;;;;;;;;;5073927;28;20230;-80
2023/04/26 04:10:58;;;;;;;0.80;0.80;;;;;;;;;;5091871;28;20178;-80
2023/04/26 04:13:24;;;;;;;0.80;0.80;;;;;;;;;;5089750;28;20210;-79
2023/04/26 04:15:51;;;;;;;0.80;0.80;;;;;;;;;;5076560;28;20178;-80
2023/04/26 04:18:17;;;;;;;0.77;0.77;;;;;;;;;;5075640;28;20206;-81
2023/04/26 04:20:43;;;;;;;0.80;0.80;;;;;;;;;;5075963;28;20527;-80
2023/04/26 04:23:09;;;;;;;0.80;0.80;;;;;;;;;;5074833;28;20235;-81
2023/04/26 04:25:35;;;;;;;0.80;0.80;;;;;;;;;;5077551;28;20213;-81
2023/04/26 04:28:02;;;;;;;0.80;0.80;;;;;;;;;;5076873;28;20174;-80
2023/04/26 04:30:28;;;;;;;0.83;0.83;;;;;;;;;;5076314;28;20200;-81
2023/04/26 04:32:54;;;;;;;0.80;0.80;;;;;;;;;;5076021;28;20201;-81
2023/04/26 04:35:24;;;;;;;0.77;0.77;;;;;;;;;;5076674;28;20289;-79
2023/04/26 04:37:50;;;;;;;0.80;0.80;;;;;;;;;;5077293;28;20185;-80
2023/04/26 04:40:16;;;;;;;0.80;0.80;;;;;;;;;;5076880;28;20232;-81
2023/04/26 04:42:43;;;;;;;0.80;0.80;;;;;;;;;;5075663;28;20564;-80
2023/04/26 04:45:09;;;;;;;0.80;0.80;;;;;;;;;;5076252;28;20549;-81
2023/04/26 04:47:36;;;;;;;0.70;0.70;;;;;;;;;;5076416;28;20221;-80
2023/04/26 04:50:03;;;;;;;0.70;0.70;;;;;;;;;;5076902;28;20186;-80
2023/04/26 04:52:29;;;;;;;0.80;0.80;;;;;;;;;;5076555;28;20175;-81
2023/04/26 04:54:55;;;;;;;0.80;0.80;;;;;;;;;;5077048;28;20393;-82
2023/04/26 04:57:21;;;;;;;0.80;0.80;;;;;;;;;;5075581;28;20257;-78
2023/04/26 04:59:47;;;;;;;0.70;0.70;;;;;;;;;;5075766;28;20175;-80
2023/04/26 05:02:13;;;;;;;0.80;0.80;;;;;;;;;;5076734;28;20722;-81
2023/04/26 05:04:39;;;;;;;0.80;0.80;;;;;;;;;;5075925;28;20272;-81
2023/04/26 05:07:05;;;;;;;0.80;0.80;;;;;;;;;;5076440;28;20213;-79
2023/04/26 05:09:31;;;;;;;0.80;0.80;;;;;;;;;;5076197;28;20286;-82
2023/04/26 05:11:57;;;;;;;0.60;0.60;;;;;;;;;;5075970;28;20216;-81
2023/04/26 05:14:23;;;;;;;0.70;0.70;;;;;;;;;;5075518;28;20206;-80
2023/04/26 05:16:49;;;;;;;0.70;0.70;;;;;;;;;;5076786;28;20205;-80
2023/04/26 05:19:15;;;;;;;0.60;0.60;;;;;;;;;;5076866;28;20175;-81
2023/04/26 05:21:41;;;;;;;0.80;0.80;;;;;;;;;;5078205;28;20226;-80
2023/04/26 05:24:07;;;;;;;0.80;0.80;;;;;;;;;;5076102;28;20206;-81
2023/04/26 05:26:34;;;;;;;0.70;0.70;;;;;;;;;;5077783;28;20221;-80
2023/04/26 05:29:00;;;;;;;0.70;0.70;;;;;;;;;;5096041;28;20165;-81
2023/04/26 05:31:26;;;;;;;0.80;0.80;;;;;;;;;;5096187;28;20724;-81
2023/04/26 05:33:52;;;;;;;0.70;0.70;;;;;;;;;;5096037;28;20231;-81
2023/04/26 05:36:18;;;;;;;0.80;0.80;;;;;;;;;;5096153;28;20201;-81
2023/04/26 05:38:44;;;;;;;0.70;0.70;;;;;;;;;;5095517;28;20193;-80
2023/04/26 05:41:10;;;;;;;0.60;0.60;;;;;;;;;;5095424;28;20251;-84
2023/04/26 05:43:37;;;;;;;0.70;0.70;;;;;;;;;;5096641;28;20204;-81
2023/04/26 05:46:03;;;;;;;0.70;0.70;;;;;;;;;;5096621;28;20278;-81
2023/04/26 05:48:28;;;;;;;0.70;0.70;;;;;;;;;;5085412;28;20185;-82
2023/04/26 05:50:54;;;;;;;0.80;0.80;;;;;;;;;;5095083;28;20490;-81
2023/04/26 05:53:21;;;;;;;0.77;0.77;;;;;;;;;;5093490;28;20209;-81
2023/04/26 05:55:47;;;;;;;0.70;0.70;;;;;;;;;;5092711;28;20174;-83
2023/04/26 05:58:13;;;;;;;0.73;0.73;;;;;;;;;;5093173;28;20563;-81
2023/04/26 06:00:40;;;;;;;0.70;0.70;;;;;;;;;;5092371;28;20178;-81
2023/04/26 06:03:06;;;;;;;0.60;0.60;;;;;;;;;;5073123;28;20181;-80
2023/04/26 06:05:32;;;;;;;0.70;0.70;;;;;;;;;;5094212;28;20257;-82
2023/04/26 06:07:58;;;;;;;0.70;0.70;;;;;;;;;;5094348;28;20599;-82
2023/04/26 06:10:24;;;;;;;0.60;0.60;;;;;;;;;;5093260;28;20521;-83
2023/04/26 06:12:50;;;;;;;0.60;0.60;;;;;;;;;;5096530;28;20178;-83
2023/04/26 06:15:16;;;;;;;0.60;0.60;;;;;;;;;;5095146;28;20635;-83
2023/04/26 06:17:42;;;;;;;0.70;0.70;;;;;;;;;;5096387;28;20166;-80
2023/04/26 06:20:09;;;;;;;0.70;0.70;;;;;;;;;;5091848;28;20197;-83
2023/04/26 06:22:35;;;;;;;0.70;0.70;;;;;;;;;;5096030;28;20628;-82
2023/04/26 06:25:01;;;;;;;0.60;0.60;;;;;;;;;;5097816;28;20247;-82
2023/04/26 06:27:27;;;;;;;0.80;0.80;;;;;;;;;;5099767;28;20319;-82
2023/04/26 06:29:53;;;;;;;0.73;0.73;;;;;;;;;;5099191;28;20170;-82
2023/04/26 06:32:19;;;;;;;0.70;0.70;;;;;;;;;;5100892;28;20239;-82
2023/04/26 06:34:45;;;;;;;0.60;0.60;;;;;;;;;;5099472;28;20280;-81
2023/04/26 06:37:11;;;;;;;0.60;0.60;;;;;;;;;;5093231;28;20243;-82
2023/04/26 06:39:37;;;;;;;0.70;0.70;;;;;;;;;;5098920;28;20174;-82
2023/04/26 06:42:04;;;;;;;0.70;0.70;;;;;;;;;;5098020;28;20177;-81
2023/04/26 06:44:30;;;;;;;0.60;0.60;;;;;;;;;;5097962;28;20232;-82
2023/04/26 06:46:56;;;;;;;0.70;0.70;;;;;;;;;;5098343;28;20259;-82
2023/04/26 06:49:23;;;;;;;0.60;0.60;;;;;;;;;;5098182;28;20177;-81
2023/04/26 06:51:49;;;;;;;0.70;0.70;;;;;;;;;;5097625;28;20590;-82
2023/04/26 06:54:15;;;;;;;0.60;0.60;;;;;;;;;;5094670;28;20653;-82
2023/04/26 06:56:41;;;;;;;0.57;0.57;;;;;;;;;;5098775;28;20200;-82
2023/04/26 06:59:07;;;;;;;0.70;0.70;;;;;;;;;;5097696;28;20185;-82
2023/04/26 07:01:34;;;;;;;0.50;0.50;;;;;;;;;;5098937;28;20204;-82
2023/04/26 07:04:02;;;;;;;0.50;0.50;;;;;;;;;;5097555;28;20207;-83
2023/04/26 07:06:28;;;;;;;0.70;0.70;;;;;;;;;;5098460;28;20200;-82
2023/04/26 07:08:54;;;;;;;0.60;0.60;;;;;;;;;;5097988;28;20272;-82
2023/04/26 07:11:20;;;;;;;0.50;0.50;;;;;;;;;;5098454;28;20181;-82
2023/04/26 07:13:46;;;;;;;0.40;0.40;;;;;;;;;;5096024;28;20526;-81
2023/04/26 07:16:12;;;;;;;0.53;0.53;;;;;;;;;;5097512;28;20174;-82
2023/04/26 07:18:39;;;;;;;0.60;0.60;;;;;;;;;;5097724;28;20184;-81
2023/04/26 07:21:05;;;;;;;0.60;0.60;;;;;;;;;;5097615;28;20613;-82
2023/04/26 07:23:32;;;;;;;0.53;0.53;;;;;;;;;;5096812;28;20285;-81
2023/04/26 07:25:58;;;;;;;0.40;0.40;;;;;;;;;;5097537;28;20703;-81
2023/04/26 07:28:24;;;;;;;0.53;0.53;;;;;;;;;;5098061;28;20174;-79
2023/04/26 07:30:50;;;;;;;0.43;0.43;;;;;;;;;;5097559;28;20178;-78
2023/04/26 07:33:16;;;;;;;0.50;0.50;;;;;;;;;;5095553;28;20636;-79
2023/04/26 07:35:43;;;;;;;0.50;0.50;;;;;;;;;;5097574;28;20185;-80
2023/04/26 07:38:09;;;;;;;0.57;0.57;;;;;;;;;;5097396;28;20177;-79
2023/04/26 07:40:35;;;;;;;0.60;0.60;;;;;;;;;;5097282;28;20595;-80
2023/04/26 07:43:01;;;;;;;0.47;0.47;;;;;;;;;;5096347;28;20177;-83
2023/04/26 07:45:27;;;;;;;0.50;0.50;;;;;;;;;;5094872;28;20237;-80
2023/04/26 07:47:53;;;;;;;0.50;0.50;;;;;;;;;;5096723;28;20243;-80
2023/04/26 07:50:19;;;;;;;0.50;0.50;;;;;;;;;;5096220;28;20547;-83
2023/04/26 07:52:46;;;;;;;0.43;0.43;;;;;;;;;;5092663;28;20173;-80
2023/04/26 07:55:12;;;;;;;0.47;0.47;;;;;;;;;;5091717;28;20193;-81
2023/04/26 07:57:38;;;;;;;0.40;0.40;;;;;;;;;;5086426;28;20190;-80
2023/04/26 08:00:09;;;;;;;0.50;0.50;;;;;;;;;;5084718;28;20181;-82
2023/04/26 08:02:35;;;;;;;0.40;0.40;;;;;;;;;;5083701;28;20713;-81
2023/04/26 08:05:01;;;;;;;0.40;0.40;;;;;;;;;;5086053;28;20707;-82
2023/04/26 08:07:27;;;;;;;0.50;0.50;;;;;;;;;;5085513;28;20705;-81
2023/04/26 08:09:53;;;;;;;0.50;0.50;;;;;;;;;;5089677;28;20166;-81
2023/04/26 08:12:19;;;;;;;0.40;0.40;;;;;;;;;;5078225;28;20253;-80
2023/04/26 08:14:45;;;;;;;0.40;0.40;;;;;;;;;;5076365;28;20669;-82
2023/04/26 08:17:11;;;;;;;0.40;0.40;;;;;;;;;;5076726;28;20208;-81
2023/04/26 08:19:37;;;;;;;0.40;0.40;;;;;;;;;;5076524;28;20186;-82
2023/04/26 08:22:04;;;;;;;0.47;0.47;;;;;;;;;;5076358;28;20274;-82
2023/04/26 08:24:30;;;;;;;0.40;0.40;;;;;;;;;;5075680;28;20198;-81
2023/04/26 08:26:58;;;;;;;0.40;0.40;;;;;;;;;;5083570;28;20236;-80
2023/04/26 08:29:24;;;;;;;0.40;0.40;;;;;;;;;;5090812;28;20673;-81
2023/04/26 08:31:50;;;;;;;0.30;0.30;;;;;;;;;;5095989;28;20186;-82
2023/04/26 08:34:16;;;;;;;0.30;0.30;;;;;;;;;;5096558;28;20253;-82
2023/04/26 08:36:42;;;;;;;0.40;0.40;;;;;;;;;;5096634;28;20186;-82
2023/04/26 08:39:08;;;;;;;0.33;0.33;;;;;;;;;;5095467;28;20174;-83
2023/04/26 08:41:42;;;;;;;0.37;0.37;;;;;;;;;;5089998;28;20173;-82
2023/04/26 08:44:08;;;;;;;0.40;0.40;;;;;;;;;;5089040;28;20598;-82
2023/04/26 08:46:46;;;;;;;0.40;0.40;;;;;;;;;;5083998;28;20198;-82
2023/04/26 08:49:25;;;;;;;0.40;0.40;;;;;;;;;;5083911;28;20537;-82
2023/04/26 08:51:51;;;;;;;0.30;0.30;;;;;;;;;;5095715;28;20640;-84
2023/04/26 08:54:18;;;;;;;0.40;0.40;;;;;;;;;;5085442;28;20202;-82
2023/04/26 08:56:46;;;;;;;0.37;0.37;;;;;;;;;;5083317;28;20190;-81
2023/04/26 08:59:12;;;;;;;0.30;0.30;;;;;;;;;;5082035;28;20191;-81
2023/04/26 09:01:43;;;;;;;0.40;0.40;;;;;;;;;;5083521;28;20249;-81
2023/04/26 09:04:10;;;;;;;0.40;0.40;;;;;;;;;;5084056;28;20194;-82
2023/04/26 09:06:36;;;;;;;0.40;0.40;;;;;;;;;;5074675;28;20205;-82
2023/04/26 09:09:06;;;;;;;0.40;0.40;;;;;;;;;;5087121;28;20178;-82
2023/04/26 09:11:53;;;;;;;0.40;0.40;;;;;;;;;;5086952;28;20630;-82
2023/04/26 09:14:19;;;;;;;0.50;0.50;;;;;;;;;;5077373;28;20565;-80
2023/04/26 09:16:45;;;;;;;0.50;0.50;;;;;;;;;;5086724;28;20553;-81
2023/04/26 09:19:10;;;;;;;0.43;0.43;;;;;;;;;;5091620;28;20173;-81
2023/04/26 09:21:44;;;;;;;0.50;0.50;;;;;;;;;;5082571;28;20178;-82
2023/04/26 09:24:10;;;;;;;0.50;0.50;;;;;;;;;;5091157;28;20276;-81
2023/04/26 09:26:36;;;;;;;0.70;0.70;;;;;;;;;;5074514;28;20576;-83
2023/04/26 09:29:19;;;;;;;0.40;0.40;;;;;;;;;;5082395;28;20173;-81
2023/04/26 09:31:46;;;;;;;0.50;0.50;;;;;;;;;;5080111;28;20170;-81
2023/04/26 09:34:13;;;;;;;0.60;0.60;;;;;;;;;;5090648;28;20211;-82
2023/04/26 09:36:46;;;;;;;0.50;0.50;;;;;;;;;;5079708;28;20189;-80
2023/04/26 09:39:12;;;;;;;0.40;0.40;;;;;;;;;;5067818;28;20238;-81
2023/04/26 09:41:43;;;;;;;0.40;0.40;;;;;;;;;;5088896;28;20185;-80
2023/04/26 09:44:20;;;;;;;0.30;0.30;;;;;;;;;;5090802;28;20280;-81
2023/04/26 09:46:57;;;;;;;0.40;0.40;;;;;;;;;;5089954;28;20661;-82
2023/04/26 09:49:25;;;;;;;0.40;0.40;;;;;;;;;;5090278;28;20258;-84
2023/04/26 09:52:04;;;;;;;0.40;0.40;;;;;;;;;;5093444;28;20258;-82
2023/04/26 09:54:46;;;;;;;0.30;0.30;;;;;;;;;;5094820;28;20674;-82
2023/04/26 09:57:13;;;;;;;0.30;0.30;;;;;;;;;;5089018;28;20170;-82
2023/04/26 10:00:01;;;;;;;0.40;0.40;;;;;;;;;;5094399;28;20194;-82
2023/04/26 10:02:28;;;;;;;0.37;0.37;;;;;;;;;;5095317;28;20270;-81
2023/04/26 10:04:55;;;;;;;0.40;0.40;;;;;;;;;;5085849;28;20235;-83
2023/04/26 10:07:23;;;;;;;0.30;0.30;;;;;;;;;;5088162;28;20210;-82
2023/04/26 10:09:49;;;;;;;0.53;0.53;;;;;;;;;;5093823;28;20174;-83
2023/04/26 10:12:16;;;;;;;0.50;0.50;;;;;;;;;;5081753;28;20232;-84
2023/04/26 10:14:43;;;;;;;0.40;0.40;;;;;;;;;;5095764;28;20186;-82
2023/04/26 10:17:10;;;;;;;0.40;0.40;;;;;;;;;;5085956;28;20209;-83
2023/04/26 10:19:37;;;;;;;0.40;0.40;;;;;;;;;;5087770;28;20301;-82
2023/04/26 10:22:15;;;;;;;0.40;0.40;;;;;;;;;;5091795;28;20641;-83
2023/04/26 10:24:43;;;;;;;0.40;0.40;;;;;;;;;;5088881;28;20705;-84
2023/04/26 10:27:09;;;;;;;0.43;0.43;;;;;;;;;;5083228;28;20205;-83
2023/04/26 10:29:53;;;;;;;0.30;0.30;;;;;;;;;;5092902;28;20174;-83
2023/04/26 10:32:20;;;;;;;0.40;0.40;;;;;;;;;;5090015;28;20175;-83
2023/04/26 10:35:05;;;;;;;0.40;0.40;;;;;;;;;;5077607;28;20204;-83
2023/04/26 10:37:31;;;;;;;0.40;0.40;;;;;;;;;;5099058;28;20181;-83
2023/04/26 10:40:17;;;;;;;0.40;0.40;;;;;;;;;;5096908;28;20651;-83
2023/04/26 10:42:43;;;;;;;0.40;0.40;;;;;;;;;;5097368;28;20223;-83
2023/04/26 10:45:29;;;;;;;0.30;0.30;;;;;;;;;;5093860;28;20206;-83
2023/04/26 10:48:27;;;;;;;0.40;0.40;;;;;;;;;;5085688;28;20178;-84
2023/04/26 10:51:07;;;;;;;0.33;0.33;;;;;;;;;;5033443;28;20236;-83
2023/04/26 10:53:45;;;;;;;0.40;0.40;;;;;;;;;;5094957;28;20274;-83
2023/04/26 10:56:32;;;;;;;0.50;0.50;;;;;;;;;;5098501;28;20203;-83
2023/04/26 10:59:08;;;;;;;0.40;0.40;;;;;;;;;;5081212;28;20189;-82
2023/04/26 11:01:34;;;;;;;0.50;0.50;;;;;;;;;;5088709;28;20182;-83
2023/04/26 11:04:00;;;;;;;0.40;0.40;;;;;;;;;;5086511;28;20197;-83
2023/04/26 11:06:27;;;;;;;0.47;0.47;;;;;;;;;;5089026;28;20197;-82
2023/04/26 11:08:53;;;;;;;0.50;0.50;;;;;;;;;;5087248;28;20174;-84
2023/04/26 11:11:25;;;;;;;0.40;0.40;;;;;;;;;;5091493;28;20548;-85
2023/04/26 11:13:51;;;;;;;0.50;0.50;;;;;;;;;;5097445;28;20672;-84
2023/04/26 11:16:17;;;;;;;0.43;0.43;;;;;;;;;;5099320;28;20170;-83
2023/04/26 11:18:44;;;;;;;0.40;0.40;;;;;;;;;;5093186;28;20625;-84
2023/04/26 11:21:11;;;;;;;0.40;0.40;;;;;;;;;;5088969;28;20171;-82
2023/04/26 11:23:38;;;;;;;0.47;0.47;;;;;;;;;;5088313;28;20218;-84
2023/04/26 11:26:08;;;;;;;0.40;0.40;;;;;;;;;;5082059;28;20198;-83
2023/04/26 11:28:35;;;;;;;0.40;0.40;;;;;;;;;;5078443;28;20170;-84
2023/04/26 11:31:02;;;;;;;0.40;0.40;;;;;;;;;;5079340;28;20187;-84
2023/04/26 11:33:29;;;;;;;0.40;0.40;;;;;;;;;;5079102;28;20201;-84
2023/04/26 11:35:55;;;;;;;0.40;0.40;;;;;;;;;;5079910;28;20174;-84
2023/04/26 11:38:21;;;;;;;0.50;0.50;;;;;;;;;;5079242;28;20166;-84
2023/04/26 11:40:57;;;;;;;0.40;0.40;;;;;;;;;;5079019;28;20653;-84
2023/04/26 11:43:29;;;;;;;0.43;0.43;;;;;;;;;;5078554;28;20262;-84
2023/04/26 11:45:58;;;;;;;0.40;0.40;;;;;;;;;;5079663;28;20257;-84
2023/04/26 11:48:24;;;;;;;0.33;0.33;;;;;;;;;;5078032;28;20603;-84
2023/04/26 11:50:50;;;;;;;0.40;0.40;;;;;;;;;;5078467;28;20205;-84
2023/04/26 11:53:16;;;;;;;0.30;0.30;;;;;;;;;;5078556;28;20177;-83
2023/04/26 11:55:42;;;;;;;0.40;0.40;;;;;;;;;;5078935;28;20170;-84
2023/04/26 11:58:10;;;;;;;0.40;0.40;;;;;;;;;;5078426;28;20198;-84
2023/04/26 12:00:36;;;;;;;0.40;0.40;;;;;;;;;;5078362;28;20174;-83
2023/04/26 12:03:09;;;;;;;0.40;0.40;;;;;;;;;;5078271;28;20178;-84
2023/04/26 12:05:36;;;;;;;0.40;0.40;;;;;;;;;;5077877;28;20178;-84
2023/04/26 12:08:03;;;;;;;0.40;0.40;;;;;;;;;;5079018;28;20261;-83
2023/04/26 12:10:35;;;;;;;0.40;0.40;;;;;;;;;;5076147;28;20178;-84
2023/04/26 12:13:01;;;;;;;0.40;0.40;;;;;;;;;;5076488;28;20171;-84
2023/04/26 12:15:30;;;;;;;0.30;0.30;;;;;;;;;;5078057;28;20641;-84
2023/04/26 12:17:59;;;;;;;0.40;0.40;;;;;;;;;;5078745;28;20236;-85
2023/04/26 12:20:28;;;;;;;0.33;0.33;;;;;;;;;;5077385;28;20270;-84
2023/04/26 12:22:58;;;;;;;0.40;0.40;;;;;;;;;;5076566;28;20174;-83
2023/04/26 12:25:24;;;;;;;0.40;0.40;;;;;;;;;;5082814;28;20185;-84
2023/04/26 12:27:50;;;;;;;0.40;0.40;;;;;;;;;;5086591;28;20268;-84
2023/04/26 12:30:16;;;;;;;0.40;0.40;;;;;;;;;;5077268;28;20237;-81
2023/04/26 12:32:42;;;;;;;0.40;0.40;;;;;;;;;;5080347;28;20254;-85
2023/04/26 12:35:09;;;;;;;0.40;0.40;;;;;;;;;;5088506;28;20190;-83
2023/04/26 12:37:35;;;;;;;0.50;0.50;;;;;;;;;;5089492;28;20227;-83
2023/04/26 12:40:01;;;;;;;0.40;0.40;;;;;;;;;;5089683;28;20174;-84
2023/04/26 12:42:27;;;;;;;0.40;0.40;;;;;;;;;;5092064;28;20174;-84
2023/04/26 12:44:53;;;;;;;0.50;0.50;;;;;;;;;;5105959;28;20186;-81
2023/04/26 12:47:19;;;;;;;0.43;0.43;;;;;;;;;;5105849;28;20213;-82
2023/04/26 12:49:45;;;;;;;0.43;0.43;;;;;;;;;;5116216;28;20188;-83
2023/04/26 12:52:11;;;;;;;0.43;0.43;;;;;;;;;;5107800;28;20173;-83
2023/04/26 12:54:37;;;;;;;0.40;0.40;;;;;;;;;;5116617;28;20189;-83
2023/04/26 12:57:03;;;;;;;0.50;0.50;;;;;;;;;;5102258;28;20186;-84
2023/04/26 12:59:30;;;;;;;0.50;0.50;;;;;;;;;;5092685;28;20241;-83
2023/04/26 13:01:56;;;;;;;0.40;0.40;;;;;;;;;;5092637;28;20174;-84
2023/04/26 13:04:22;;;;;;;0.50;0.50;;;;;;;;;;5092651;28;20194;-83
2023/04/26 13:06:48;;;;;;;0.40;0.40;;;;;;;;;;5084146;28;20287;-83
2023/04/26 13:09:14;;;;;;;0.40;0.40;;;;;;;;;;5093862;28;20247;-83
2023/04/26 13:11:40;;;;;;;0.40;0.40;;;;;;;;;;5092631;28;20613;-83
2023/04/26 13:14:06;;;;;;;0.40;0.40;;;;;;;;;;5094051;28;20262;-84
2023/04/26 13:16:33;;;;;;;0.40;0.40;;;;;;;;;;5078980;28;20168;-83
2023/04/26 13:18:59;;;;;;;0.50;0.50;;;;;;;;;;5092454;28;20182;-83
2023/04/26 13:21:25;;;;;;;0.50;0.50;;;;;;;;;;5092287;28;20706;-84
2023/04/26 13:23:51;;;;;;;0.50;0.50;;;;;;;;;;5093822;28;20202;-84
2023/04/26 13:26:17;;;;;;;0.50;0.50;;;;;;;;;;5059873;28;20210;-84
2023/04/26 13:28:43;;;;;;;0.50;0.50;;;;;;;;;;5088340;28;20166;-84
2023/04/26 13:31:10;;;;;;;0.60;0.60;;;;;;;;;;5082013;28;20205;-83
2023/04/26 13:33:36;;;;;;;0.40;0.40;;;;;;;;;;5080374;28;20681;-84
2023/04/26 13:36:02;;;;;;;0.50;0.50;;;;;;;;;;5088707;28;20322;-83
2023/04/26 13:38:28;;;;;;;0.50;0.50;;;;;;;;;;5091214;28;20212;-84
2023/04/26 13:40:54;;;;;;;0.50;0.50;;;;;;;;;;5088772;28;20517;-84
2023/04/26 13:43:20;;;;;;;0.50;0.50;;;;;;;;;;5082555;28;20267;-84
2023/04/26 13:45:46;;;;;;;0.43;0.43;;;;;;;;;;5087869;28;20218;-84
2023/04/26 13:48:12;;;;;;;0.40;0.40;;;;;;;;;;5078321;28;20182;-85
2023/04/26 13:50:38;;;;;;;0.40;0.40;;;;;;;;;;5090036;28;20182;-83
2023/04/26 13:53:04;;;;;;;0.50;0.50;;;;;;;;;;5083936;28;20194;-84
2023/04/26 13:55:30;;;;;;;0.50;0.50;;;;;;;;;;5085243;28;20547;-84
2023/04/26 13:57:56;;;;;;;0.40;0.40;;;;;;;;;;5077297;28;20213;-84
2023/04/26 14:00:22;;;;;;;0.60;0.60;;;;;;;;;;5088870;28;20165;-84
2023/04/26 14:02:48;;;;;;;0.43;0.43;;;;;;;;;;5078243;28;20170;-84
2023/04/26 14:05:16;;;;;;;0.40;0.40;;;;;;;;;;5083044;28;20355;-84
2023/04/26 14:07:42;;;;;;;0.30;0.30;;;;;;;;;;5092665;28;20237;-85
2023/04/26 14:10:08;;;;;;;0.50;0.50;;;;;;;;;;5088221;28;20174;-84
2023/04/26 14:12:34;;;;;;;0.37;0.37;;;;;;;;;;5087521;28;20203;-84
2023/04/26 14:15:04;;;;;;;0.50;0.50;;;;;;;;;;5089809;28;20189;-84
2023/04/26 14:17:31;;;;;;;0.40;0.40;;;;;;;;;;5090190;28;20182;-85
2023/04/26 14:19:57;;;;;;;0.50;0.50;;;;;;;;;;5080942;28;20240;-84
2023/04/26 14:22:23;;;;;;;0.50;0.50;;;;;;;;;;5088239;28;20182;-84
2023/04/26 14:24:50;;;;;;;0.50;0.50;;;;;;;;;;5073942;28;20285;-83
2023/04/26 14:27:16;;;;;;;0.60;0.60;;;;;;;;;;5083445;28;20224;-85
2023/04/26 14:29:41;;;;;;;0.40;0.40;;;;;;;;;;5080461;28;20532;-84
2023/04/26 14:32:07;;;;;;;0.60;0.60;;;;;;;;;;5091211;28;20184;-84
2023/04/26 14:34:38;;;;;;;0.47;0.47;;;;;;;;;;5074662;28;20200;-83
2023/04/26 14:37:04;;;;;;;0.40;0.40;;;;;;;;;;5094353;28;20184;-83
2023/04/26 14:39:30;;;;;;;0.50;0.50;;;;;;;;;;5096558;28;20170;-84
2023/04/26 14:41:56;;;;;;;0.40;0.40;;;;;;;;;;5096073;28;20264;-82
2023/04/26 14:44:26;;;;;;;0.43;0.43;;;;;;;;;;5097697;28;20221;-82